createdAt,value
2023-03-18T00:01:27.068Z,15.35
2023-03-18T00:03:59.720Z,15.70
2023-03-18T00:06:32.701Z,14.45
2023-03-18T00:09:05.579Z,16.88
2023-03-18T00:11:39.360Z,12.77
2023-03-18T00:14:12.012Z,13.82
2023-03-18T00:16:44.981Z,17.15
2023-03-18T00:19:18.672Z,14.77
2023-03-18T00:21:51.910Z,13.85
2023-03-18T00:24:24.449Z,14.90
2023-03-18T00:26:57.296Z,13.88
2023-03-18T00:29:30.753Z,14.10
2023-03-18T00:32:03.622Z,17.25
2023-03-18T00:34:36.168Z,15.20
2023-03-18T00:37:10.493Z,21.90
2023-03-18T00:39:44.386Z,13.90
2023-03-18T00:42:17.560Z,17.42
2023-03-18T00:44:50.581Z,15.45
2023-03-18T00:47:23.329Z,15.63
2023-03-18T00:49:55.873Z,14.40
2023-03-18T00:52:30.554Z,16.10
2023-03-18T00:55:05.156Z,16.48
2023-03-18T00:57:37.909Z,17.27
2023-03-18T01:00:11.586Z,17.15
2023-03-18T01:02:44.603Z,17.55
2023-03-18T01:05:17.481Z,12.63
2023-03-18T01:07:50.300Z,19.10
2023-03-18T01:10:22.790Z,17.45
2023-03-18T01:12:56.063Z,15.77
2023-03-18T01:15:29.684Z,18.17
2023-03-18T01:18:02.487Z,16.92
2023-03-18T01:20:35.936Z,13.57
2023-03-18T01:23:08.949Z,15.57
2023-03-18T01:25:41.528Z,17.50
2023-03-18T01:28:14.628Z,12.68
2023-03-18T01:30:47.869Z,14.52
2023-03-18T01:33:20.744Z,16.13
2023-03-18T01:35:57.671Z,15.13
2023-03-18T01:38:30.923Z,12.07
2023-03-18T01:41:04.410Z,16.70
2023-03-18T01:43:40.852Z,16.33
2023-03-18T01:46:31.511Z,11.75
2023-03-18T01:49:15.998Z,13.98
2023-03-18T01:52:15.805Z,14.57
2023-03-18T01:55:12.915Z,12.50
2023-03-18T01:57:46.803Z,14.60
2023-03-18T02:00:20.214Z,13.88
2023-03-18T02:02:54.480Z,12.45
2023-03-18T02:05:28.231Z,11.48
2023-03-18T02:08:01.804Z,11.50
2023-03-18T02:10:34.617Z,13.00
2023-03-18T02:13:09.899Z,15.10
2023-03-18T02:15:52.300Z,15.75
2023-03-18T02:18:33.794Z,14.75
2023-03-18T02:21:22.664Z,13.43
2023-03-18T02:24:12.001Z,15.73
2023-03-18T02:27:19.076Z,10.80
2023-03-18T02:29:57.045Z,13.23
2023-03-18T02:32:32.631Z,9.10
2023-03-18T02:35:08.312Z,13.85
2023-03-18T02:37:41.141Z,10.63
2023-03-18T02:40:17.050Z,16.73
2023-03-18T02:42:50.171Z,14.90
2023-03-18T02:45:37.338Z,20.50
2023-03-18T02:48:14.367Z,9.52
2023-03-18T02:50:48.828Z,10.70
2023-03-18T02:53:21.565Z,15.02
2023-03-18T02:55:54.213Z,10.73
2023-03-18T02:58:27.021Z,13.75
2023-03-18T03:00:59.804Z,13.18
2023-03-18T03:03:32.922Z,12.70
2023-03-18T03:06:05.937Z,17.77
2023-03-18T03:08:39.391Z,15.50
2023-03-18T03:11:12.245Z,20.75
2023-03-18T03:13:45.916Z,9.90
2023-03-18T03:16:19.393Z,13.50
2023-03-18T03:18:52.230Z,13.93
2023-03-18T03:21:24.771Z,14.68
2023-03-18T03:23:58.379Z,11.38
2023-03-18T03:26:31.472Z,10.95
2023-03-18T03:29:05.711Z,15.95
2023-03-18T03:31:38.244Z,15.35
2023-03-18T03:34:11.943Z,15.15
2023-03-18T03:36:44.738Z,10.90
2023-03-18T03:39:17.607Z,17.25
2023-03-18T03:41:50.123Z,11.38
2023-03-18T03:44:22.869Z,12.77
2023-03-18T03:46:55.424Z,12.25
2023-03-18T03:49:28.291Z,16.08
2023-03-18T03:52:00.813Z,12.45
2023-03-18T03:54:33.659Z,17.77
2023-03-18T03:57:06.413Z,17.20
2023-03-18T03:59:39.220Z,12.65
2023-03-18T04:02:11.795Z,12.05
2023-03-18T04:04:45.337Z,10.93
2023-03-18T04:07:17.837Z,14.10
2023-03-18T04:09:50.744Z,15.13
2023-03-18T04:12:23.425Z,11.38
2023-03-18T04:14:56.206Z,12.90
2023-03-18T04:17:28.714Z,12.50
2023-03-18T04:20:02.143Z,15.02
2023-03-18T04:22:35.009Z,11.25
2023-03-18T04:25:09.103Z,15.38
2023-03-18T04:27:42.283Z,15.27
2023-03-18T04:30:15.211Z,11.55
2023-03-18T04:32:47.710Z,17.98
2023-03-18T04:35:21.270Z,12.25
2023-03-18T04:37:54.729Z,12.48
2023-03-18T04:40:27.595Z,15.90
2023-03-18T04:43:00.204Z,11.38
2023-03-18T04:45:32.957Z,12.73
2023-03-18T04:48:05.874Z,10.38
2023-03-18T04:50:38.761Z,14.35
2023-03-18T04:53:11.286Z,10.23
2023-03-18T04:55:45.134Z,12.73
2023-03-18T04:58:17.943Z,14.63
2023-03-18T05:00:50.828Z,21.48
2023-03-18T05:03:23.749Z,14.25
2023-03-18T05:05:57.151Z,12.52
2023-03-18T05:08:29.889Z,13.30
2023-03-18T05:11:03.431Z,13.40
2023-03-18T05:13:35.903Z,12.10
2023-03-18T05:16:10.173Z,17.40
2023-03-18T05:18:42.692Z,11.27
2023-03-18T05:21:15.697Z,11.27
2023-03-18T05:23:48.300Z,12.90
2023-03-18T05:26:21.056Z,20.30
2023-03-18T05:28:53.874Z,14.60
2023-03-18T05:31:26.797Z,11.00
2023-03-18T05:34:00.443Z,13.13
2023-03-18T05:36:33.500Z,12.75
2023-03-18T05:39:05.994Z,12.23
2023-03-18T05:41:38.764Z,10.07
2023-03-18T05:44:11.925Z,15.55
2023-03-18T05:46:44.704Z,12.30
2023-03-18T05:49:17.354Z,18.35
2023-03-18T05:51:52.169Z,14.18
2023-03-18T05:54:27.085Z,16.30
2023-03-18T05:56:59.843Z,10.48
2023-03-18T05:59:32.723Z,14.60
2023-03-18T06:02:05.554Z,15.65
2023-03-18T06:04:38.383Z,16.55
2023-03-18T06:07:12.296Z,15.95
2023-03-18T06:09:44.779Z,10.32
2023-03-18T06:12:19.486Z,12.20
2023-03-18T06:14:52.371Z,14.15
2023-03-18T06:17:25.247Z,14.30
2023-03-18T06:19:59.173Z,13.43
2023-03-18T06:22:35.357Z,14.73
2023-03-18T06:25:08.552Z,16.85
2023-03-18T06:27:42.114Z,14.45
2023-03-18T06:30:16.200Z,13.93
2023-03-18T06:32:49.042Z,14.35
2023-03-18T06:35:21.873Z,12.07
2023-03-18T06:37:55.005Z,17.02
2023-03-18T06:40:27.523Z,15.45
2023-03-18T06:43:00.632Z,15.18
2023-03-18T06:45:33.367Z,14.57
2023-03-18T06:48:07.377Z,12.63
2023-03-18T06:50:40.750Z,14.68
2023-03-18T06:53:14.271Z,15.98
2023-03-18T06:55:47.150Z,13.93
2023-03-18T06:58:19.968Z,11.98
2023-03-18T07:00:52.861Z,14.45
2023-03-18T07:03:26.553Z,18.77
2023-03-18T07:05:59.025Z,14.98
2023-03-18T07:08:32.328Z,19.05
2023-03-18T07:11:07.156Z,18.33
2023-03-18T07:13:39.945Z,17.92
2023-03-18T07:16:12.481Z,16.27
2023-03-18T07:18:45.447Z,17.73
2023-03-18T07:21:17.966Z,15.15
2023-03-18T07:23:52.170Z,15.65
2023-03-18T07:26:25.524Z,15.50
2023-03-18T07:28:58.318Z,20.42
2023-03-18T07:31:31.951Z,16.65
2023-03-18T07:34:05.182Z,12.55
2023-03-18T07:36:38.310Z,16.33
2023-03-18T07:39:11.396Z,19.33
2023-03-18T07:41:49.581Z,14.55
2023-03-18T07:44:23.295Z,13.43
2023-03-18T07:46:56.080Z,14.40
2023-03-18T07:49:30.083Z,14.80
2023-03-18T07:52:53.824Z,15.73
2023-03-18T07:55:30.594Z,25.30
2023-03-18T07:58:05.328Z,16.73
2023-03-18T08:00:38.355Z,13.13
2023-03-18T08:03:12.796Z,16.95
2023-03-18T08:05:45.697Z,20.40
2023-03-18T08:08:18.449Z,19.30
2023-03-18T08:10:54.401Z,16.40
2023-03-18T08:13:27.177Z,16.52
2023-03-18T08:16:00.389Z,15.27
2023-03-18T08:18:32.977Z,16.88
2023-03-18T08:21:06.137Z,16.30
2023-03-18T08:23:38.717Z,20.08
2023-03-18T08:26:12.250Z,16.33
2023-03-18T08:28:44.750Z,11.57
2023-03-18T08:31:18.231Z,13.98
2023-03-18T08:33:54.210Z,15.32
2023-03-18T08:36:29.198Z,14.07
2023-03-18T08:39:04.501Z,16.67
2023-03-18T08:41:46.224Z,14.07
2023-03-18T08:44:18.705Z,12.60
2023-03-18T08:46:51.625Z,15.13
2023-03-18T08:49:25.452Z,16.20
2023-03-18T08:51:58.290Z,12.68
2023-03-18T08:54:31.153Z,14.52
2023-03-18T08:57:03.969Z,17.88
2023-03-18T08:59:37.001Z,15.43
2023-03-18T09:02:16.903Z,14.43
2023-03-18T09:04:49.505Z,9.80
2023-03-18T09:07:22.549Z,17.98
2023-03-18T09:09:55.031Z,19.77
2023-03-18T09:12:28.781Z,10.88
2023-03-18T09:15:02.280Z,19.63
2023-03-18T09:17:50.866Z,15.57
2023-03-18T09:20:27.104Z,12.02
2023-03-18T09:23:04.085Z,18.40
2023-03-18T09:25:36.666Z,17.13
2023-03-18T09:28:09.945Z,18.42
2023-03-18T09:30:42.695Z,15.07
2023-03-18T09:33:16.225Z,14.10
2023-03-18T09:35:49.594Z,13.32
2023-03-18T09:38:22.532Z,17.10
2023-03-18T09:41:02.063Z,14.38
2023-03-18T09:43:44.938Z,15.20
2023-03-18T09:47:12.216Z,18.02
2023-03-18T09:50:21.785Z,12.02
2023-03-18T09:53:07.707Z,14.63
2023-03-18T09:55:47.050Z,17.42
2023-03-18T09:58:31.251Z,11.85
2023-03-18T10:01:06.559Z,19.95
2023-03-18T10:03:42.689Z,17.10
2023-03-18T10:06:20.538Z,18.75
2023-03-18T10:09:23.509Z,17.30
2023-03-18T10:12:22.828Z,18.42
2023-03-18T10:15:24.009Z,14.27
2023-03-18T10:18:29.638Z,14.32
2023-03-18T10:21:29.589Z,14.40
2023-03-18T10:24:35.013Z,12.38
2023-03-18T10:27:33.456Z,13.23
2023-03-18T10:30:35.733Z,15.43
2023-03-18T10:33:38.347Z,17.55
2023-03-18T10:36:17.476Z,16.30
2023-03-18T10:38:52.691Z,15.95
2023-03-18T10:41:39.152Z,12.73
2023-03-18T10:44:27.360Z,15.15
2023-03-18T10:47:15.418Z,19.55
2023-03-18T10:50:10.845Z,17.90
2023-03-18T10:53:23.092Z,18.45
2023-03-18T10:56:08.389Z,14.40
2023-03-18T10:58:42.529Z,14.50
2023-03-18T11:01:22.862Z,15.23
2023-03-18T11:04:06.752Z,18.85
2023-03-18T11:06:48.577Z,17.30
2023-03-18T11:09:27.742Z,17.10
2023-03-18T11:12:05.923Z,16.33
2023-03-18T11:14:38.900Z,13.15
2023-03-18T11:17:48.391Z,13.73
2023-03-18T11:20:44.311Z,17.77
2023-03-18T11:23:20.679Z,15.75
2023-03-18T11:25:55.901Z,18.08
2023-03-18T11:28:30.142Z,22.88
2023-03-18T11:31:06.663Z,18.23
2023-03-18T11:33:39.347Z,13.85
2023-03-18T11:36:25.422Z,19.38
2023-03-18T11:39:04.316Z,14.38
2023-03-18T11:41:39.997Z,14.27
2023-03-18T11:44:33.188Z,15.18
2023-03-18T11:47:24.223Z,11.25
2023-03-18T11:49:57.566Z,15.30
2023-03-18T11:52:52.911Z,14.10
2023-03-18T11:55:49.034Z,15.70
2023-03-18T11:58:45.515Z,14.05
2023-03-18T12:01:21.302Z,13.43
2023-03-18T12:04:33.987Z,17.40
2023-03-18T12:09:53.536Z,14.40
2023-03-18T12:12:55.695Z,12.73
2023-03-18T12:15:47.195Z,16.13
2023-03-18T12:18:37.363Z,15.45
2023-03-18T12:21:16.387Z,14.02
2023-03-18T12:23:55.300Z,16.02
2023-03-18T12:26:54.552Z,11.70
2023-03-18T12:30:02.284Z,18.35
2023-03-18T12:32:43.291Z,15.38
2023-03-18T12:35:21.999Z,16.63
2023-03-18T12:38:00.466Z,14.07
2023-03-18T12:40:50.030Z,17.80
2023-03-18T12:43:28.501Z,15.90
2023-03-18T12:46:13.457Z,14.63
2023-03-18T12:49:08.403Z,16.42
2023-03-18T12:51:50.069Z,14.93
2023-03-18T12:54:29.289Z,16.13
2023-03-18T12:57:09.308Z,15.13
2023-03-18T12:59:57.955Z,16.40
2023-03-18T13:02:54.502Z,16.95
2023-03-18T13:05:36.823Z,16.92
2023-03-18T13:08:27.278Z,15.80
2023-03-18T13:11:12.223Z,15.48
2023-03-18T13:13:51.892Z,13.77
2023-03-18T13:16:25.515Z,19.02
2023-03-18T13:18:59.167Z,13.40
2023-03-18T13:21:39.023Z,16.83
2023-03-18T13:24:45.525Z,17.20
2023-03-18T13:27:46.010Z,19.60
2023-03-18T13:30:26.647Z,16.98
2023-03-18T13:33:14.691Z,16.88
2023-03-18T13:35:54.731Z,16.73
2023-03-18T13:38:49.308Z,14.60
2023-03-18T13:41:46.542Z,12.75
2023-03-18T13:44:24.883Z,18.92
2023-03-18T13:47:07.423Z,16.05
2023-03-18T13:49:41.185Z,14.93
2023-03-18T13:52:36.002Z,18.80
2023-03-18T13:55:34.228Z,18.38
2023-03-18T13:58:13.997Z,28.67
2023-03-18T14:01:15.730Z,16.05
2023-03-18T14:03:51.232Z,19.40
2023-03-18T14:06:36.852Z,15.60
2023-03-18T14:09:33.114Z,17.95
2023-03-18T14:12:34.848Z,18.20
2023-03-18T14:15:12.883Z,16.80
2023-03-18T14:17:47.895Z,15.23
2023-03-18T14:20:21.708Z,15.23
2023-03-18T14:22:57.208Z,19.02
2023-03-18T14:25:39.525Z,18.75
2023-03-18T14:28:20.543Z,15.70
2023-03-18T14:30:57.595Z,18.38
2023-03-18T14:33:33.516Z,22.25
2023-03-18T14:36:10.427Z,19.10
2023-03-18T14:39:00.160Z,15.18
2023-03-18T14:41:42.584Z,19.67
2023-03-18T14:44:34.312Z,16.80
2023-03-18T14:47:37.564Z,16.50
2023-03-18T14:50:17.216Z,18.73
2023-03-18T14:53:01.472Z,17.15
2023-03-18T14:55:36.443Z,19.80
2023-03-18T14:58:21.377Z,21.88
2023-03-18T15:01:01.617Z,18.27
2023-03-18T15:03:34.511Z,18.05
2023-03-18T15:06:08.393Z,19.75
2023-03-18T15:08:50.536Z,19.92
2023-03-18T15:11:24.735Z,18.48
2023-03-18T15:13:59.986Z,18.10
2023-03-18T15:16:33.499Z,16.80
2023-03-18T15:19:11.536Z,17.55
2023-03-18T15:21:45.266Z,20.13
2023-03-18T15:24:23.875Z,19.83
2023-03-18T15:26:59.184Z,18.23
2023-03-18T15:29:35.931Z,18.40
2023-03-18T15:32:28.464Z,18.83
2023-03-18T15:35:22.345Z,16.65
2023-03-18T15:38:15.770Z,19.73
2023-03-18T15:40:52.001Z,17.73
2023-03-18T15:43:42.889Z,17.48
2023-03-18T15:46:27.881Z,18.35
2023-03-18T15:49:05.596Z,19.05
2023-03-18T15:51:57.309Z,20.52
2023-03-18T15:54:40.070Z,26.40
2023-03-18T15:57:21.102Z,18.48
2023-03-18T16:00:11.266Z,22.35
2023-03-18T16:02:43.795Z,21.48
2023-03-18T16:05:26.290Z,27.08
2023-03-18T16:07:59.252Z,28.17
2023-03-18T16:10:32.577Z,24.08
2023-03-18T16:13:05.245Z,23.33
2023-03-18T16:15:37.993Z,23.70
2023-03-18T16:18:10.668Z,27.73
2023-03-18T16:20:45.807Z,23.48
2023-03-18T16:23:21.237Z,25.20
2023-03-18T16:25:55.591Z,27.30
2023-03-18T16:28:28.508Z,23.70
2023-03-18T16:31:05.197Z,32.70
2023-03-18T16:33:38.445Z,21.92
2023-03-18T16:36:32.149Z,22.73
2023-03-18T16:39:18.132Z,26.40
2023-03-18T16:41:52.667Z,22.38
2023-03-18T16:44:26.614Z,26.02
2023-03-18T16:47:02.482Z,23.92
2023-03-18T16:49:37.404Z,24.95
2023-03-18T16:52:12.697Z,24.75
2023-03-18T16:54:45.466Z,23.48
2023-03-18T16:57:21.664Z,24.98
2023-03-18T16:59:56.616Z,24.35
2023-03-18T17:02:32.384Z,28.38
2023-03-18T17:05:08.540Z,28.35
2023-03-18T17:07:41.633Z,34.50
2023-03-18T17:10:21.749Z,33.58
2023-03-18T17:13:13.437Z,30.17
2023-03-18T17:15:46.375Z,35.53
2023-03-18T17:18:23.575Z,34.45
2023-03-18T17:20:56.114Z,48.17
2023-03-18T17:23:29.259Z,33.83
2023-03-18T17:26:02.916Z,38.40
2023-03-18T17:28:39.309Z,37.50
2023-03-18T17:31:12.639Z,33.22
2023-03-18T17:33:45.825Z,29.05
2023-03-18T17:36:18.402Z,35.17
2023-03-18T17:38:56.678Z,25.35
2023-03-18T17:41:29.175Z,29.38
2023-03-18T17:44:02.210Z,27.33
2023-03-18T17:46:35.452Z,31.70
2023-03-18T17:49:14.345Z,43.15
2023-03-18T17:51:50.697Z,34.28
2023-03-18T17:54:27.233Z,37.55
2023-03-18T17:56:59.699Z,29.33
2023-03-18T17:59:33.468Z,41.63
2023-03-18T18:02:18.318Z,35.00
2023-03-18T18:04:53.784Z,35.50
2023-03-18T18:07:26.280Z,37.17
2023-03-18T18:10:00.910Z,32.70
2023-03-18T18:12:33.466Z,41.38
2023-03-18T18:15:07.465Z,32.80
2023-03-18T18:17:39.947Z,31.67
2023-03-18T18:20:16.900Z,36.17
2023-03-18T18:22:55.635Z,31.48
2023-03-18T18:25:31.768Z,34.58
2023-03-18T18:28:15.080Z,33.85
2023-03-18T18:30:49.488Z,42.88
2023-03-18T18:33:22.012Z,39.70
2023-03-18T18:35:55.200Z,35.58
2023-03-18T18:38:28.497Z,33.15
2023-03-18T18:41:01.992Z,33.13
2023-03-18T18:43:34.496Z,36.92
2023-03-18T18:46:16.404Z,36.35
2023-03-18T18:48:49.350Z,41.13
2023-03-18T18:51:24.080Z,34.67
2023-03-18T18:53:56.676Z,34.97
2023-03-18T18:56:35.404Z,32.15
2023-03-18T18:59:23.054Z,35.95
2023-03-18T19:01:56.886Z,30.55
2023-03-18T19:04:29.488Z,37.15
2023-03-18T19:07:06.494Z,31.33
2023-03-18T19:09:45.609Z,26.83
2023-03-18T19:12:19.187Z,31.00
2023-03-18T19:14:51.990Z,33.67
2023-03-18T19:17:25.650Z,35.33
2023-03-18T19:19:58.440Z,34.53
2023-03-18T19:22:32.202Z,34.03
2023-03-18T19:25:05.176Z,31.63
2023-03-18T19:27:38.129Z,30.30
2023-03-18T19:30:23.858Z,32.80
2023-03-18T19:32:59.765Z,34.42
2023-03-18T19:35:33.643Z,33.15
2023-03-18T19:38:06.720Z,33.03
2023-03-18T19:40:39.586Z,32.85
2023-03-18T19:43:17.768Z,33.85
2023-03-18T19:45:51.914Z,39.97
2023-03-18T19:48:30.915Z,38.50
2023-03-18T19:51:03.527Z,36.25
2023-03-18T19:53:36.937Z,30.73
2023-03-18T19:56:24.388Z,41.63
2023-03-18T19:58:58.933Z,36.83
2023-03-18T20:01:41.918Z,35.40
2023-03-18T20:04:25.220Z,39.30
2023-03-18T20:06:57.797Z,36.33
2023-03-18T20:09:30.629Z,34.17
2023-03-18T20:12:05.885Z,32.00
2023-03-18T20:14:39.283Z,32.70
2023-03-18T20:17:29.038Z,38.35
2023-03-18T20:20:01.958Z,30.40
2023-03-18T20:22:43.819Z,44.70
2023-03-18T20:25:25.204Z,36.47
2023-03-18T20:27:58.285Z,39.35
2023-03-18T20:30:35.796Z,31.83
2023-03-18T20:33:08.631Z,31.15
2023-03-18T20:35:44.156Z,30.23
2023-03-18T20:38:30.831Z,30.95
2023-03-18T20:41:07.197Z,25.27
2023-03-18T20:43:39.692Z,31.67
2023-03-18T20:46:14.451Z,29.50
2023-03-18T20:48:49.390Z,26.85
2023-03-18T20:51:38.495Z,27.52
2023-03-18T20:54:29.976Z,27.77
2023-03-18T20:57:03.102Z,33.22
2023-03-18T20:59:35.839Z,33.13
2023-03-18T21:02:29.315Z,29.33
2023-03-18T21:05:04.360Z,31.52
2023-03-18T21:07:37.428Z,26.13
2023-03-18T21:10:16.598Z,27.73
2023-03-18T21:12:50.170Z,32.00
2023-03-18T21:15:28.220Z,27.95
2023-03-18T21:18:01.384Z,30.42
2023-03-18T21:20:35.739Z,26.48
2023-03-18T21:23:18.977Z,23.92
2023-03-18T21:25:56.136Z,28.67
2023-03-18T21:28:30.730Z,28.08
2023-03-18T21:31:03.646Z,30.80
2023-03-18T21:33:36.584Z,33.58
2023-03-18T21:36:11.156Z,36.92
2023-03-18T21:38:43.970Z,27.17
2023-03-18T21:41:22.486Z,34.13
2023-03-18T21:43:55.305Z,34.35
2023-03-18T21:46:30.011Z,28.27
2023-03-18T21:49:02.912Z,30.48
2023-03-18T21:51:39.551Z,32.88
2023-03-18T21:54:18.949Z,28.58
2023-03-18T21:56:56.724Z,31.67
2023-03-18T21:59:29.541Z,32.97
2023-03-18T22:02:02.037Z,36.45
2023-03-18T22:04:34.943Z,30.17
2023-03-18T22:07:15.624Z,27.80
2023-03-18T22:09:48.397Z,31.25
2023-03-18T22:12:29.987Z,25.55
2023-03-18T22:15:03.508Z,29.58
2023-03-18T22:17:38.548Z,28.75
2023-03-18T22:20:12.820Z,30.05
2023-03-18T22:22:45.417Z,26.15
2023-03-18T22:25:45.619Z,32.25
2023-03-18T22:28:18.880Z,37.67
2023-03-18T22:30:52.853Z,25.08
2023-03-18T22:33:26.634Z,28.58
2023-03-18T22:35:59.948Z,33.22
2023-03-18T22:38:32.825Z,25.67
2023-03-18T22:41:06.117Z,30.85
2023-03-18T22:43:38.709Z,31.33
2023-03-18T22:46:11.927Z,22.65
2023-03-18T22:48:44.512Z,27.85
2023-03-18T22:51:24.197Z,32.30
2023-03-18T22:53:56.878Z,31.80
2023-03-18T22:56:32.214Z,36.08
2023-03-18T22:59:04.728Z,28.33
2023-03-18T23:01:37.623Z,30.92
2023-03-18T23:04:12.420Z,29.77
2023-03-18T23:06:46.104Z,28.80
2023-03-18T23:09:18.731Z,27.98
2023-03-18T23:11:51.712Z,28.85
2023-03-18T23:14:24.588Z,33.70
2023-03-18T23:16:57.409Z,35.20
2023-03-18T23:19:29.917Z,36.58
2023-03-18T23:22:03.038Z,36.80
2023-03-18T23:24:35.654Z,34.58
2023-03-18T23:27:09.070Z,31.48
2023-03-18T23:29:41.838Z,38.65
2023-03-18T23:32:16.278Z,30.73
2023-03-18T23:34:49.218Z,36.33
2023-03-18T23:37:22.645Z,29.70
2023-03-18T23:39:55.113Z,28.35
2023-03-18T23:42:27.901Z,29.40
2023-03-18T23:45:00.806Z,27.48
2023-03-18T23:47:33.654Z,28.65
2023-03-18T23:50:08.083Z,36.25
2023-03-18T23:52:40.889Z,33.55
2023-03-18T23:55:32.748Z,39.05
2023-03-18T23:58:06.343Z,23.98
